CheckWX is a tool to help pilots better visualize weather data.  It is not intended as a substitute for an official pre-flight weather briefing.

18:41:52 UTC

HDAM TAF
Djibouti-Ambouli Airport
Djibouti City, Djibouti
HDAM 171700Z 1718/1818 12010KT 9999 SCT020 BECMG 1800/1806 08010KT FEW023 BECMG 1806/1812 VRB05KT BKN020

Feb-17@
18:00 UTC

Feb-17 @ 18:00 UTC

Feb-18@
00:00 UTC

Feb-18 @ 00:00 UTC

HDAM 171700Z 1718/1818 12010KT 9999 SCT020
Wind
  • 120° at 10 KTS
Visibility
10,000+ meters
Cloud Levels
  • Scattered at 2,000' AGL

Feb-18@
00:00 UTC

Feb-18 @ 00:00 UTC

Feb-18@
06:00 UTC

Feb-18 @ 06:00 UTC

BECMG 1800/1806 08010KT FEW023

Becoming

BecomingConditions expected by Mon, Feb 18, 2019 @ 06:00 UTC

Wind
  • 080° at 10 KTS
Visibility
10,000+ meters
Cloud Levels
  • Few at 2,300' AGL

Feb-18@
06:00 UTC

Feb-18 @ 06:00 UTC

Feb-18@
18:00 UTC

Feb-18 @ 18:00 UTC

BECMG 1806/1812 VRB05KT BKN020

Becoming

BecomingConditions expected by Mon, Feb 18, 2019 @ 12:00 UTC

Wind
  • Variable at 5 KTS
Visibility
10,000+ meters
Cloud Levels
  • Broken at 2,000' AGL